地図

経路データ

SID SEASON NUMBER BASIN SUBBASIN NAME ISO_TIME NATURE LAT LON WMO_WIND WMO_PRES WMO_AGENCY TRACK_TYPE DIST2LAND LANDFALL IFLAG USA_AGENCY USA_ATCF_ID USA_LAT USA_LON USA_RECORD USA_STATUS USA_WIND USA_PRES USA_SSHS USA_R34_NE USA_R34_SE USA_R34_SW USA_R34_NW USA_R50_NE USA_R50_SE USA_R50_SW USA_R50_NW USA_R64_NE USA_R64_SE USA_R64_SW USA_R64_NW USA_POCI USA_ROCI USA_RMW USA_EYE TOKYO_LAT TOKYO_LON TOKYO_GRADE TOKYO_WIND TOKYO_PRES TOKYO_R50_DIR TOKYO_R50_LONG TOKYO_R50_SHORT TOKYO_R30_DIR TOKYO_R30_LONG TOKYO_R30_SHORT TOKYO_LAND CMA_LAT CMA_LON CMA_CAT CMA_WIND CMA_PRES HKO_LAT HKO_LON HKO_CAT HKO_WIND HKO_PRES NEWDELHI_LAT NEWDELHI_LON NEWDELHI_GRADE NEWDELHI_WIND NEWDELHI_PRES NEWDELHI_CI NEWDELHI_DP NEWDELHI_POCI REUNION_LAT REUNION_LON REUNION_TYPE REUNION_WIND REUNION_PRES REUNION_TNUM REUNION_CI REUNION_RMW REUNION_R34_NE REUNION_R34_SE REUNION_R34_SW REUNION_R34_NW REUNION_R50_NE REUNION_R50_SE REUNION_R50_SW REUNION_R50_NW REUNION_R64_NE REUNION_R64_SE REUNION_R64_SW REUNION_R64_NW BOM_LAT BOM_LON BOM_TYPE BOM_WIND BOM_PRES BOM_TNUM BOM_CI BOM_RMW BOM_R34_NE BOM_R34_SE BOM_R34_SW BOM_R34_NW BOM_R50_NE BOM_R50_SE BOM_R50_SW BOM_R50_NW BOM_R64_NE BOM_R64_SE BOM_R64_SW BOM_R64_NW BOM_ROCI BOM_POCI BOM_EYE BOM_POS_METHOD BOM_PRES_METHOD NADI_LAT NADI_LON NADI_CAT NADI_WIND NADI_PRES WELLINGTON_LAT WELLINGTON_LON WELLINGTON_WIND WELLINGTON_PRES DS824_LAT DS824_LON DS824_STAGE DS824_WIND DS824_PRES TD9636_LAT TD9636_LON TD9636_STAGE TD9636_WIND TD9636_PRES TD9635_LAT TD9635_LON TD9635_WIND TD9635_PRES TD9635_ROCI NEUMANN_LAT NEUMANN_LON NEUMANN_CLASS NEUMANN_WIND NEUMANN_PRES MLC_LAT MLC_LON MLC_CLASS MLC_WIND MLC_PRES USA_GUST BOM_GUST BOM_GUST_PER REUNION_GUST REUNION_GUST_PER USA_SEAHGT USA_SEARAD_NE USA_SEARAD_SE USA_SEARAD_SW USA_SEARAD_NW STORM_SPEED STORM_DIR
1944064S13132 1944 17 SI WA NOT_NAMED 1944-03-03 23:00:00 NR -12.9000 131.800 main 0 0 __________O___ -1 -12.9000 131.800 7 22 259
1944064S13132 1944 17 SI WA NOT_NAMED 1944-03-03 23:30:00 NR -12.9333 131.618 998 bom main 0 0 ______O___P___ -1 -13.0000 131.300 998 -12.9000 131.778 7 17 259
1944064S13132 1944 17 SI WA NOT_NAMED 1944-03-04 00:00:00 TS -12.9552 131.520 main 0 0 ______P__OP___ -1 -13.0155 131.278 -13.0000 131.300 TC 35 998 -12.9000 131.755 7 4 252
1944064S13132 1944 17 SI WA NOT_NAMED 1944-03-04 03:00:00 TS -13.0127 131.363 main 0 0 ______P__PP___ -1 -13.1091 131.147 -13.0934 131.169 TC -12.9001 131.622 7 3 247
1944064S13132 1944 17 SI WA NOT_NAMED 1944-03-04 06:00:00 TS -13.0895 131.195 main 0 0 ______P__PP___ -1 -13.2047 131.015 -13.1885 131.037 TC -12.9001 131.493 7 3 243
1944064S13132 1944 17 SI WA NOT_NAMED 1944-03-04 09:00:00 TS -13.1639 131.053 main 0 0 ______P__PP___ -1 -13.3043 130.882 -13.2873 130.904 TC -12.9001 131.373 7 3 241
1944064S13132 1944 17 SI WA NOT_NAMED 1944-03-04 11:00:00 TS -13.2099 130.969 main 0 0 ______P__PO___ -1 -13.3737 130.792 -13.3561 130.815 TC -12.9000 131.300 7 3 241
1944064S13132 1944 17 SI WA NOT_NAMED 1944-03-04 12:00:00 TS -13.2337 130.927 main 0 0 ______P__PP___ -1 -13.4096 130.747 -13.3916 130.770 TC -12.9000 131.266 7 3 238
1944064S13132 1944 17 SI WA NOT_NAMED 1944-03-04 15:00:00 TS -13.3097 130.802 main 0 0 ______P__PP___ -1 -13.5225 130.609 -13.5031 130.632 TC -12.9035 131.166 7 3 237
1944064S13132 1944 17 SI WA NOT_NAMED 1944-03-04 18:00:00 TS -13.3961 130.672 main 0 0 ______P__PP___ -1 -13.6449 130.468 -13.6238 130.492 TC -12.9196 131.056 7 3 235
1944064S13132 1944 17 SI WA NOT_NAMED 1944-03-04 21:00:00 TS -13.4973 130.530 main 0 0 ______P__PP___ -1 -13.7786 130.324 -13.7555 130.348 TC -12.9577 130.917 7 4 233
1944064S13132 1944 17 SI WA NOT_NAMED 1944-03-04 23:00:00 TS -13.5751 130.425 main 0 0 ______P__PO___ -1 -13.8749 130.225 -13.8503 130.250 TC -13.0000 130.800 7 4 233
1944064S13132 1944 17 SI WA NOT_NAMED 1944-03-04 23:30:00 TS -13.5952 130.397 997 bom main 0 0 ______O__PP___ -1 -13.9000 130.200 997 -13.8749 130.225 TC -13.0107 130.766 7 4 233
1944064S13132 1944 17 SI WA NOT_NAMED 1944-03-05 00:00:00 TS -13.6159 130.369 main 0 0 ______P__OP___ -1 -13.9255 130.175 -13.9000 130.200 TC 35 997 -13.0221 130.731 7 4 233
1944064S13132 1944 17 SI WA NOT_NAMED 1944-03-05 03:00:00 TS -13.7495 130.186 main 0 0 ______P__PP___ -1 -14.0837 130.020 -14.0569 130.046 TC -13.1079 130.491 7 5 233
1944064S13132 1944 17 SI WA NOT_NAMED 1944-03-05 06:00:00 TS -13.8952 129.983 main 0 0 ______P__PP___ -1 -14.2431 129.853 -14.2170 129.882 TC -13.2254 130.214 7 5 234
1944064S13132 1944 17 SI WA NOT_NAMED 1944-03-05 09:00:00 TS -14.0461 129.761 main 0 0 ______P__PP___ -1 -14.3922 129.670 -14.3685 129.702 TC -13.3776 129.910 7 5 236
1944064S13132 1944 17 SI WA NOT_NAMED 1944-03-05 11:00:00 TS -14.1464 129.602 main 0 0 ______P__PO___ -1 -14.4800 129.535 -14.4591 129.570 TC -13.5000 129.700 7 6 237
1944064S13132 1944 17 SI WA NOT_NAMED 1944-03-05 11:30:00 TS -14.1722 129.562 bom main 0 0 ______O__PP___ -1 -14.5000 129.500 -14.4800 129.535 TC -13.5367 129.650 7 6 240
1944064S13132 1944 17 SI WA NOT_NAMED 1944-03-05 12:00:00 TS -14.1953 129.522 main 0 0 ______P__OP___ -1 -14.5109 129.468 -14.5000 129.500 TC -13.5752 129.598 7 5 240
1944064S13132 1944 17 SI WA NOT_NAMED 1944-03-05 15:00:00 TS -14.3293 129.278 main 10 10 ______P__PP___ -1 -14.5533 129.264 -14.6027 129.286 TC -13.8318 129.283 7 6 242
1944064S13132 1944 17 SI WA NOT_NAMED 1944-03-05 18:00:00 TS -14.4601 129.013 main 44 33 ______P__PP___ -1 -14.5904 129.034 -14.6839 129.049 TC -14.1060 128.955 7 6 244
1944064S13132 1944 17 SI WA NOT_NAMED 1944-03-05 21:00:00 TS -14.5924 128.725 main 33 22 ______P__PP___ -1 -14.6690 128.764 -14.7482 128.787 TC -14.3601 128.622 7 6 245
1944064S13132 1944 17 SI WA NOT_NAMED 1944-03-05 23:00:00 TS -14.6838 128.518 main 22 22 ______P__PO___ -1 -14.7676 128.556 -14.7838 128.599 TC -14.5000 128.400 7 7 245
1944064S13132 1944 17 SI WA NOT_NAMED 1944-03-05 23:30:00 TS -14.7061 128.465 990 bom main 22 21 ______O__PP___ -1 -14.8000 128.500 990 -14.7920 128.550 TC -14.5263 128.345 7 7 246
1944064S13132 1944 17 SI WA NOT_NAMED 1944-03-06 00:00:00 TS -14.7298 128.410 main 21 0 ______P__OP___ -1 -14.8384 128.442 -14.8000 128.500 TC 45 990 -14.5509 128.289 7 7 247
1944064S13132 1944 17 SI WA NOT_NAMED 1944-03-06 02:00:00 TS -14.8219 128.185 bom main 0 0 ______O__PP___ -1 -15.0000 128.200 -14.8324 128.289 TC -14.6334 128.067 7 7 249
1944064S13132 1944 17 SI WA NOT_NAMED 1944-03-06 03:00:00 TS -14.8575 128.070 main 0 0 ______P__PP___ -1 -15.0601 128.077 -14.8463 128.178 TC -14.6661 127.955 7 7 257
1944064S13132 1944 17 SI WA NOT_NAMED 1944-03-06 06:00:00 TS -14.9264 127.717 main 0 0 ______P__PP___ -1 -15.1621 127.701 -14.8798 127.824 TC -14.7372 127.625 7 7 262
1944064S13132 1944 17 SI WA NOT_NAMED 1944-03-06 09:00:00 TS -14.9521 127.356 main 0 0 ______P__PP___ -1 -15.1727 127.315 -14.9038 127.446 TC -14.7797 127.305 7 7 267
1944064S13132 1944 17 SI WA NOT_NAMED 1944-03-06 11:00:00 TS -14.9538 127.114 main 0 0 ______P__PO___ -1 -15.1453 127.056 -14.9163 127.186 TC -14.8000 127.100 7 7 270
1944064S13132 1944 17 SI WA NOT_NAMED 1944-03-06 12:00:00 TS -14.9539 126.995 main 0 0 ______P__PP___ -1 -15.1249 126.926 -14.9218 127.054 TC -14.8149 127.004 7 7 271
1944064S13132 1944 17 SI WA NOT_NAMED 1944-03-06 15:00:00 TS -14.9459 126.641 main 0 0 ______P__PP___ -1 -15.0520 126.540 -14.9369 126.655 TC -14.8488 126.728 7 7 271
1944064S13132 1944 17 SI WA NOT_NAMED 1944-03-06 18:00:00 TS -14.9370 126.293 main 0 0 ______P__PP___ -1 -14.9873 126.160 -14.9526 126.257 TC -14.8712 126.461 7 7 270
1944064S13132 1944 17 SI WA NOT_NAMED 1944-03-06 21:00:00 TS -14.9416 125.951 main 0 0 ______P__PP___ -1 -14.9639 125.793 -14.9725 125.869 TC -14.8884 126.189 7 7 268
1944064S13132 1944 17 SI WA NOT_NAMED 1944-03-06 23:00:00 TS -14.9592 125.726 main 0 0 ______P__PO___ -1 -14.9877 125.558 -14.9898 125.621 TC -14.9000 126.000 7 7 265
1944064S13132 1944 17 SI WA NOT_NAMED 1944-03-06 23:30:00 TS -14.9657 125.670 995 bom main 0 0 ______O__PP___ -1 -15.0000 125.500 995 -14.9947 125.560 TC -14.9024 125.950 7 7 261
1944064S13132 1944 17 SI WA NOT_NAMED 1944-03-07 00:00:00 TS -14.9750 125.614 main 0 0 ______P__OP___ -1 -15.0202 125.443 -15.0000 125.500 TC 40 995 -14.9046 125.900 7 6 259
1944064S13132 1944 17 SI WA NOT_NAMED 1944-03-07 03:00:00 TS -15.0402 125.290 main 0 0 ______P__PP___ -1 -15.1558 125.108 -15.0480 125.174 TC -14.9169 125.588 7 6 258
1944064S13132 1944 17 SI WA NOT_NAMED 1944-03-07 04:00:00 TS -15.0624 125.183 bom main 10 0 ______O__PP___ -1 -15.2000 125.000 -15.0655 125.069 TC -14.9217 125.481 7 6 259
1944064S13132 1944 17 SI WA NOT_NAMED 1944-03-07 06:00:00 TS -15.1018 124.972 main 0 0 ______P__PP___ -1 -15.2685 124.790 -15.1025 124.863 TC -14.9343 125.263 7 6 259
1944064S13132 1944 17 SI WA NOT_NAMED 1944-03-07 09:00:00 TS -15.1578 124.661 main 10 10 ______P__PP___ -1 -15.3449 124.491 -15.1623 124.564 TC -14.9661 124.927 7 6 259
1944064S13132 1944 17 SI WA NOT_NAMED 1944-03-07 11:00:00 TS -15.1953 124.457 main 31 31 ______P__PO___ -1 -15.3814 124.301 -15.2046 124.370 TC -15.0000 124.700 7 6 259
1944064S13132 1944 17 SI WA NOT_NAMED 1944-03-07 12:00:00 TS -15.2153 124.354 main 39 39 ______P__PP___ -1 -15.3961 124.209 -15.2264 124.275 TC -15.0233 124.577 7 6 258
1944064S13132 1944 17 SI WA NOT_NAMED 1944-03-07 15:00:00 TS -15.2775 124.045 main 54 54 ______P__PP___ -1 -15.4292 123.940 -15.2933 123.996 TC -15.1099 124.198 7 6 258
1944064S13132 1944 17 SI WA NOT_NAMED 1944-03-07 18:00:00 TS -15.3424 123.744 main 82 78 ______P__PP___ -1 -15.4513 123.682 -15.3621 123.725 TC -15.2138 123.826 7 6 257
1944064S13132 1944 17 SI WA NOT_NAMED 1944-03-07 21:00:00 TS -15.4088 123.460 main 92 92 ______P__PP___ -1 -15.4695 123.430 -15.4314 123.460 TC -15.3256 123.490 7 6 256
1944064S13132 1944 17 SI WA NOT_NAMED 1944-03-07 23:00:00 TS -15.4534 123.284 main 89 89 ______P__PO___ -1 -15.4830 123.265 -15.4773 123.286 TC -15.4000 123.300 7 5 255
1944064S13132 1944 17 SI WA NOT_NAMED 1944-03-08 00:00:00 TS -15.4747 123.202 main 94 94 ______P__OP___ -1 -15.4909 123.182 -15.5000 123.200 TC 50 988 -15.4332 123.224 7 5 255
1944064S13132 1944 17 SI WA NOT_NAMED 1944-03-08 01:00:00 TS -15.4939 123.126 988 bom main 101 101 ______O__PP___ -1 -15.5000 123.100 988 -15.5152 123.121 TC -15.4664 123.157 7 4 254
1944064S13132 1944 17 SI WA NOT_NAMED 1944-03-08 03:00:00 TS -15.5336 122.986 main 108 100 ______P__PP___ -1 -15.5237 122.948 -15.5443 122.968 TC -15.5329 123.042 7 4 253
1944064S13132 1944 17 SI WA NOT_NAMED 1944-03-08 06:00:00 TS -15.5929 122.793 main 101 95 ______P__PP___ -1 -15.5593 122.728 -15.5865 122.746 TC -15.6329 122.905 7 4 252
1944064S13132 1944 17 SI WA NOT_NAMED 1944-03-08 09:00:00 TS -15.6539 122.608 main 95 95 ______P__PP___ -1 -15.5981 122.512 -15.6304 122.527 TC -15.7331 122.785 7 4 251
1944064S13132 1944 17 SI WA NOT_NAMED 1944-03-08 11:00:00 TS -15.6966 122.481 main 99 99 ______P__PO___ -1 -15.6275 122.366 -15.6623 122.378 TC -15.8000 122.700 7 4 251
1944064S13132 1944 17 SI WA NOT_NAMED 1944-03-08 12:00:00 TS -15.7183 122.418 main 104 101 ______P__PP___ -1 -15.6436 122.292 -15.6795 122.302 TC -15.8320 122.661 7 4 250
1944064S13132 1944 17 SI WA NOT_NAMED 1944-03-08 15:00:00 TS -15.7879 122.223 main 108 108 ______P__PP___ -1 -15.6991 122.060 -15.7375 122.065 TC -15.9273 122.545 7 4 250
1944064S13132 1944 17 SI WA NOT_NAMED 1944-03-08 18:00:00 TS -15.8668 122.006 main 115 115 ______P__PP___ -1 -15.7680 121.808 -15.8079 121.808 TC -16.0245 122.401 7 5 250
1944064S13132 1944 17 SI WA NOT_NAMED 1944-03-08 21:00:00 TS -15.9584 121.748 main 132 132 ______P__PP___ -1 -15.8538 121.529 -15.8942 121.522 TC -16.1271 122.193 7 6 250
1944064S13132 1944 17 SI WA NOT_NAMED 1944-03-08 23:00:00 TS -16.0281 121.545 main 146 139 ______P__PO___ -1 -15.9219 121.323 -15.9624 121.312 TC -16.2000 122.000 7 6 250
1944064S13132 1944 17 SI WA NOT_NAMED 1944-03-09 00:00:00 TS -16.0660 121.431 main 147 147 ______P__OP___ -1 -15.9597 121.214 -16.0000 121.200 TC 60 980 -16.2385 121.878 7 7 252
1944064S13132 1944 17 SI WA NOT_NAMED 1944-03-09 01:00:00 TS -16.1054 121.306 980 bom main 154 154 ______O__PP___ -1 -16.0000 121.100 980 -16.0382 121.074 TC -16.2779 121.744 7 8 253
1944064S13132 1944 17 SI WA NOT_NAMED 1944-03-09 03:00:00 TS -16.1882 121.028 main 171 171 ______P__PP___ -1 -16.0848 120.835 -16.1206 120.807 TC -16.3592 121.442 7 9 253
1944064S13132 1944 17 SI WA NOT_NAMED 1944-03-09 06:00:00 TS -16.3242 120.569 main 202 202 ______P__PP___ -1 -16.2286 120.403 -16.2585 120.377 TC -16.4855 120.927 7 10 253
1944064S13132 1944 17 SI WA NOT_NAMED 1944-03-09 09:00:00 TS -16.4726 120.077 main 240 240 ______P__PP___ -1 -16.3908 119.938 -16.4127 119.918 TC -16.6142 120.373 7 10 252
1944064S13132 1944 17 SI WA NOT_NAMED 1944-03-09 11:00:00 TS -16.5775 119.738 main 277 277 ______P__PO___ -1 -16.5084 119.614 -16.5241 119.601 TC -16.7000 120.000 7 10 252
1944064S13132 1944 17 SI WA NOT_NAMED 1944-03-09 12:00:00 TS -16.6312 119.572 main 287 287 ______P__PP___ -1 -16.5698 119.449 -16.5823 119.440 TC -16.7415 119.828 7 10 251
1944064S13132 1944 17 SI WA NOT_NAMED 1944-03-09 15:00:00 TS -16.7989 119.068 main 331 331 ______P__PP___ -1 -16.7638 118.947 -16.7665 118.950 TC -16.8663 119.308 7 10 250
1944064S13132 1944 17 SI WA NOT_NAMED 1944-03-09 18:00:00 TS -16.9757 118.560 main 350 341 ______P__PP___ -1 -16.9713 118.441 -16.9646 118.458 TC -16.9913 118.781 7 10 250
1944064S13132 1944 17 SI WA NOT_NAMED 1944-03-09 21:00:00 TS -17.1611 118.055 main 341 341 ______P__PP___ -1 -17.1908 117.940 -17.1760 117.971 TC -17.1164 118.252 7 10 249
1944064S13132 1944 17 SI WA NOT_NAMED 1944-03-09 23:00:00 TS -17.2891 117.723 main 346 346 ______P__PO___ -1 -17.3432 117.615 -17.3239 117.655 TC -17.2000 117.900 7 10 248
1944064S13132 1944 17 SI WA NOT_NAMED 1944-03-10 00:00:00 TS -17.3517 117.560 main 339 339 ______P__OP___ -1 -17.4211 117.456 -17.4000 117.500 TC 70 970 -17.2341 117.725 7 10 248
1944064S13132 1944 17 SI WA NOT_NAMED 1944-03-10 01:00:00 TS -17.4136 117.399 970 bom main 343 335 ______O__PP___ -1 -17.5000 117.300 970 -17.4736 117.346 TC -17.2673 117.550 7 10 248
1944064S13132 1944 17 SI WA NOT_NAMED 1944-03-10 03:00:00 TS -17.5373 117.078 main 341 324 ______P__PP___ -1 -17.6522 116.995 -17.6261 117.039 TC -17.3336 117.199 7 10 247
1944064S13132 1944 17 SI WA NOT_NAMED 1944-03-10 06:00:00 TS -17.7337 116.601 main 324 304 ______P__PP___ -1 -17.8912 116.546 -17.8667 116.584 TC -17.4433 116.674 7 10 245
1944064S13132 1944 17 SI WA NOT_NAMED 1944-03-10 09:00:00 TS -17.9478 116.133 main 308 291 ______P__PP___ -1 -18.1415 116.109 -18.1197 116.141 TC -17.5821 116.149 7 10 243
1944064S13132 1944 17 SI WA NOT_NAMED 1944-03-10 11:00:00 TS -18.1027 115.828 main 295 288 ______P__PO___ -1 -18.3139 115.828 -18.2943 115.854 TC -17.7000 115.800 7 10 242
1944064S13132 1944 17 SI WA NOT_NAMED 1944-03-10 12:00:00 TS -18.1850 115.670 main 288 281 ______P__PP___ -1 -18.4015 115.691 -18.3831 115.715 TC -17.7705 115.604 7 10 240
1944064S13132 1944 17 SI WA NOT_NAMED 1944-03-10 15:00:00 TS -18.4463 115.205 main 292 281 ______P__PP___ -1 -18.6695 115.296 -18.6548 115.311 TC -18.0146 115.009 7 10 238
1944064S13132 1944 17 SI WA NOT_NAMED 1944-03-10 18:00:00 TS -18.7239 114.768 main 286 279 ______P__PP___ -1 -18.9439 114.927 -18.9328 114.937 TC -18.2949 114.441 7 10 234
1944064S13132 1944 17 SI WA NOT_NAMED 1944-03-10 21:00:00 TS -19.0113 114.381 main 282 276 ______P__PP___ -1 -19.2231 114.591 -19.2152 114.598 TC -18.5957 113.954 7 9 230
1944064S13132 1944 17 SI WA NOT_NAMED 1944-03-10 23:00:00 TS -19.2053 114.160 main 276 275 ______P__PO___ -1 -19.4111 114.386 -19.4049 114.394 TC -18.8000 113.700 7 8 226
1944064S13132 1944 17 SI WA NOT_NAMED 1944-03-11 00:00:00 TS -19.3010 114.066 main 275 273 ______P__OP___ -1 -19.5054 114.291 -19.5000 114.300 TC 70 970 -18.8975 113.607 7 8 222
1944064S13132 1944 17 SI WA NOT_NAMED 1944-03-11 01:00:00 TS -19.3936 113.982 970 bom main 273 256 ______O__PP___ -1 -19.6000 114.200 970 4 -19.5847 114.216 TC -18.9962 113.530 7 7 218
1944064S13132 1944 17 SI WA NOT_NAMED 1944-03-11 03:00:00 TS -19.5728 113.842 main 258 236 ______P__PP___ -1 -19.7681 114.041 -19.7538 114.064 TC -19.1965 113.420 7 6 212
1944064S13132 1944 17 SI WA NOT_NAMED 1944-03-11 06:00:00 TS -19.8435 113.683 main 236 205 ______P__PP___ -1 -20.0206 113.839 -20.0095 113.872 TC -19.5004 113.337 7 6 205
1944064S13132 1944 17 SI WA NOT_NAMED 1944-03-11 09:00:00 TS -20.1171 113.566 main 205 186 ______P__PP___ -1 -20.2777 113.672 -20.2710 113.715 TC -19.8027 113.310 7 6 201
1944064S13132 1944 17 SI WA NOT_NAMED 1944-03-11 11:00:00 TS -20.3014 113.500 main 186 175 ______P__PO___ -1 -20.4537 113.576 -20.4504 113.624 TC -20.0000 113.300 7 6 199
1944064S13132 1944 17 SI WA NOT_NAMED 1944-03-11 12:00:00 TS -20.3890 113.466 main 175 158 ______P__PP___ -1 -20.5435 113.532 -20.5421 113.582 TC -20.0814 113.284 7 6 199
1944064S13132 1944 17 SI WA NOT_NAMED 1944-03-11 15:00:00 TS -20.6546 113.374 main 147 133 ______P__PP___ -1 -20.8223 113.408 -20.8268 113.463 TC -20.3147 113.249 7 6 197
1944064S13132 1944 17 SI WA NOT_NAMED 1944-03-11 18:00:00 TS -20.9359 113.286 main 133 113 ______P__PP___ -1 -21.1184 113.293 -21.1288 113.350 TC -20.5605 113.217 7 6 196
1944064S13132 1944 17 SI WA NOT_NAMED 1944-03-11 21:00:00 TS -21.2481 113.190 main 113 99 ______P__PP___ -1 -21.4360 113.175 -21.4519 113.232 TC -20.8564 113.162 7 7 197
1944064S13132 1944 17 SI WA NOT_NAMED 1944-03-11 23:00:00 TS -21.4809 113.113 main 103 98 ______P__PO___ -1 -21.6617 113.092 -21.6810 113.146 TC -21.1000 113.100 7 8 197
1944064S13132 1944 17 SI WA NOT_NAMED 1944-03-12 00:00:00 TS -21.6082 113.067 main 98 98 ______P__OP___ -1 -21.7792 113.047 -21.8000 113.100 TC 65 975 -21.2453 113.054 7 8 203
1944064S13132 1944 17 SI WA NOT_NAMED 1944-03-12 01:00:00 TS -21.7393 113.003 975 bom main 103 98 ______O__PP___ -1 -21.9000 113.000 975 -21.9167 113.006 TC -21.4013 113.001 7 9 210
1944064S13132 1944 17 SI WA NOT_NAMED 1944-03-12 03:00:00 TS -21.9945 112.831 main 106 99 ______P__PP___ -1 -22.0851 112.804 -22.1573 112.807 TC -21.7412 112.881 7 9 212
1944064S13132 1944 17 SI WA NOT_NAMED 1944-03-12 06:00:00 TS -22.4034 112.549 main 115 113 ______P__PP___ -1 -22.3707 112.485 -22.5365 112.489 TC -22.3028 112.674 7 10 212
1944064S13132 1944 17 SI WA NOT_NAMED 1944-03-12 09:00:00 TS -22.8394 112.260 main 135 135 ______P__PP___ -1 -22.6813 112.159 -22.9380 112.171 TC -22.8989 112.449 7 10 211
1944064S13132 1944 17 SI WA NOT_NAMED 1944-03-12 11:00:00 TS -23.1431 112.073 main 163 162 ______P__PO___ -1 -22.9110 111.948 -23.2182 111.970 TC -23.3000 112.300 7 10 210
1944064S13132 1944 17 SI WA NOT_NAMED 1944-03-12 12:00:00 TS -23.2918 111.977 main 166 166 ______P__PP___ -1 -23.0347 111.848 -23.3621 111.876 TC -23.4785 112.206 7 11 209
1944064S13132 1944 17 SI WA NOT_NAMED 1944-03-12 15:00:00 TS -23.7579 111.706 main 183 181 ______P__PP___ -1 -23.4487 111.579 -23.8095 111.626 TC -24.0154 111.912 7 11 204
1944064S13132 1944 17 SI WA NOT_NAMED 1944-03-12 18:00:00 TS -24.2645 111.493 main 192 192 ______P__PP___ -1 -23.9414 111.376 -24.2810 111.448 TC -24.5712 111.655 7 11 196
1944064S13132 1944 17 SI WA NOT_NAMED 1944-03-12 21:00:00 TS -24.8256 111.377 main 206 206 ______P__PP___ -1 -24.5312 111.263 -24.7775 111.364 TC -25.1681 111.505 7 12 186
1944064S13132 1944 17 SI WA NOT_NAMED 1944-03-12 23:00:00 TS -25.2367 111.375 main 208 203 ______P__PO___ -1 -24.9873 111.252 -25.1229 111.373 TC -25.6000 111.500 7 13 0
1944064S13132 1944 17 SI WA NOT_NAMED 1944-03-13 00:00:00 TS -25.4591 111.400 main 201 195 ______P__OP___ -1 -25.2362 111.268 -25.3000 111.400 TC 55 985 -25.8411 111.532 7 14 172
1944064S13132 1944 17 SI WA NOT_NAMED 1944-03-13 01:00:00 TS -25.6941 111.435 985 bom main 195 179 ______O__PP___ -1 -25.5000 111.300 985 -25.4909 111.419 TC -26.0915 111.586 7 15 170
1944064S13132 1944 17 SI WA NOT_NAMED 1944-03-13 03:00:00 TS -26.2081 111.542 main 179 162 ______P__PP___ -1 -26.1249 111.385 -25.8867 111.492 TC -26.6128 111.751 7 16 166
1944064S13132 1944 17 SI WA NOT_NAMED 1944-03-13 06:00:00 TS -27.0098 111.811 main 168 165 ______P__PP___ -1 -27.1041 111.620 -26.5070 111.688 TC -27.4182 112.125 7 17 159
1944064S13132 1944 17 SI WA NOT_NAMED 1944-03-13 09:00:00 TS -27.7846 112.206 bom main 181 163 ______O__PP___ -1 -28.0000 112.000 -27.1463 111.997 TC -28.2074 112.621 7 17 153
1944064S13132 1944 17 SI WA NOT_NAMED 1944-03-13 11:00:00 TS -28.2517 112.537 main 166 150 ______P__PO___ -1 -28.4793 112.341 -27.5758 112.269 TC -28.7000 113.000 7 17 146
1944064S13132 1944 17 SI WA NOT_NAMED 1944-03-13 12:00:00 TS -28.4707 112.722 main 153 128 ______P__PP___ -1 -28.6910 112.541 -27.7899 112.425 TC -28.9312 113.200 7 16 139
1944064S13132 1944 17 SI WA NOT_NAMED 1944-03-13 15:00:00 TS -29.0718 113.347 main 130 95 ______P__PP___ -1 -29.2252 113.224 -28.4226 112.982 TC -29.5677 113.836 7 16 134
1944064S13132 1944 17 SI WA NOT_NAMED 1944-03-13 18:00:00 TS -29.5976 114.058 main 86 19 ______P__PP___ -1 -29.6268 113.984 -29.0292 113.675 TC -30.1369 114.514 7 16 127
1944064S13132 1944 17 SI WA NOT_NAMED 1944-03-13 21:00:00 TS -30.0042 114.793 main 19 9 ______P__PP___ -1 -29.9211 114.754 -29.5938 114.511 TC -30.6623 115.220 7 14 120
1944064S13132 1944 17 SI WA NOT_NAMED 1944-03-13 22:00:00 TS -30.0743 115.021 bom main 9 0 ______O__PP___ -1 -30.0000 115.000 -29.7698 114.824 TC -30.8318 115.459 7 12 106
1944064S13132 1944 17 SI WA NOT_NAMED 1944-03-13 23:00:00 TS -30.1168 115.244 main 0 0 ______P__PO___ -1 -30.0740 115.222 -29.9388 115.153 TC -31.0000 115.700 7 12 97
1944064S13132 1944 17 SI WA NOT_NAMED 1944-03-14 00:00:00 TS -30.1192 115.476 main 0 0 ______P__O____ -1 -30.1384 115.451 -30.1000 115.500 TC 30 1000 7 14 103
1944064S13132 1944 17 SI WA NOT_NAMED 1944-03-14 01:00:00 TS -30.2265 115.782 1000 bom main 0 0 ______O__P____ -1 -30.2000 115.700 1000 -30.2530 115.864 TC 7 18 110
1944064S13132 1944 17 SI WA NOT_NAMED 1944-03-14 03:00:00 TS -30.4334 116.463 main 0 0 ______P__P____ -1 -30.3324 116.282 -30.5344 116.644 TC 7 20 107
1944064S13132 1944 17 SI WA NOT_NAMED 1944-03-14 06:00:00 TS -30.7263 117.645 main 0 0 ______P__P____ -1 -30.5545 117.362 -30.8982 117.929 TC 7 23 104
1944064S13132 1944 17 SI WA NOT_NAMED 1944-03-14 09:00:00 TS -30.9958 119.000 main 0 0 ______P__P____ -1 -30.7955 118.663 -31.1961 119.337 TC 7 25 102
1944064S13132 1944 17 SI WA NOT_NAMED 1944-03-14 12:00:00 TS -31.2391 120.502 main 0 0 ______P__P____ -1 -31.0450 120.155 -31.4331 120.849 TC 27 100
1944064S13132 1944 17 SI WA NOT_NAMED 1944-03-14 15:00:00 TS -31.4540 122.124 main 0 0 ______P__P____ -1 -31.2930 121.805 -31.6151 122.442 TC 28 98
1944064S13132 1944 17 SI WA NOT_NAMED 1944-03-14 18:00:00 TS -31.6236 123.801 main 0 0 ______P__P____ -1 -31.5301 123.580 -31.7484 124.096 TC 30 96
1944064S13132 1944 17 SI WA NOT_NAMED 1944-03-14 21:00:00 TS -31.7853 125.582 main 0 0 ______P__P____ -1 -31.7484 125.443 -31.8405 125.790 TC 31 96
1944064S13132 1944 17 SI WA NOT_NAMED 1944-03-15 00:00:00 TS -31.9279 127.405 main 0 0 ______P__O____ -1 -31.9418 127.357 -31.9000 127.500 TC 15 1012 31 96
1944064S13132 1944 17 SI WA NOT_NAMED 1944-03-15 01:00:00 NR -32.0000 128.000 1012 bom main 0 ______O_______ -1 -32.0000 128.000 1012 TC 31 98

IBTrACS Databaseについて

本データベースは、米国NOAAが公開する1842年以降の世界の熱帯低気圧のベストトラックデータアーカイブInternational Best Track Archive for Climate Stewardship (IBTrACS)を、ウェブで閲覧しやすい形式に変換したものです。

最終更新日:2021-11-26